Time;durP1;ratioP1;P1;durP2;ratioP2;P2;SDS_P1;SDS_P2;PMS_P1;PMS_P2;Temp;Humidity;BMP_temperature;BMP_pressure;BME280_temperature;BME280_humidity;BME280_pressure;Samples;Min_cycle;Max_cycle;Signal;HPM_P1;HPM_P2
2021/05/06 00:01:53;;;;;;;7.50;4.20;;;;;;;18.75;100.00;100227.56;5055165;28;20028;-75
2021/05/06 00:32:14;;;;;;;4.78;3.88;;;;;;;19.00;100.00;100229.59;5055076;28;20026;-75
2021/05/06 00:35:00;;;;;;;7.88;4.13;;;;;;;19.04;100.00;100231.13;5055212;28;20029;-75
2021/05/06 00:38:07;;;;;;;8.50;4.03;;;;;;;18.88;100.00;100238.28;5040158;28;20033;-75
2021/05/06 00:59:42;;;;;;;6.78;4.20;;;;;;;19.12;100.00;100250.13;5054186;28;20025;-74
2021/05/06 01:05:41;;;;;;;6.50;3.90;;;;;;;19.30;100.00;100267.66;5058153;28;20036;-75
2021/05/06 01:08:26;;;;;;;9.40;4.00;;;;;;;18.95;100.00;100263.53;5058358;28;20098;-75
2021/05/06 01:11:27;;;;;;;8.90;4.10;;;;;;;18.53;100.00;100261.56;5057806;28;20048;-75
2021/05/06 01:14:13;;;;;;;7.43;4.38;;;;;;;18.51;100.00;100267.91;5057532;28;20033;-75
2021/05/06 01:16:59;;;;;;;5.22;3.88;;;;;;;18.44;100.00;100270.06;5058487;28;20020;-74
2021/05/06 01:19:45;;;;;;;5.95;3.83;;;;;;;18.09;100.00;100275.59;5044101;28;20017;-74
2021/05/06 01:22:31;;;;;;;7.32;4.68;;;;;;;18.45;100.00;100268.28;5057587;28;20441;-75
2021/05/06 01:25:17;;;;;;;7.68;4.28;;;;;;;18.42;100.00;100258.69;5057134;28;20032;-75
2021/05/06 01:28:08;;;;;;;6.18;4.40;;;;;;;18.22;100.00;100261.56;5057558;28;20114;-75
2021/05/06 01:31:07;;;;;;;6.43;4.68;;;;;;;17.91;100.00;100263.31;5058175;28;20021;-74
2021/05/06 01:34:07;;;;;;;7.32;4.40;;;;;;;18.08;100.00;100268.56;5057626;28;20339;-75
2021/05/06 01:36:59;;;;;;;6.43;4.40;;;;;;;18.14;100.00;100268.22;5057718;28;20028;-75
2021/05/06 02:00:21;;;;;;;10.40;5.40;;;;;;;17.81;100.00;100291.28;5057470;28;20025;-75
2021/05/06 02:03:06;;;;;;;8.48;5.00;;;;;;;18.14;100.00;100278.84;5057261;28;20112;-75
2021/05/06 02:05:52;;;;;;;10.00;5.78;;;;;;;18.20;100.00;100289.97;5057147;28;20025;-75
2021/05/06 02:08:38;;;;;;;6.97;5.57;;;;;;;18.33;100.00;100285.69;5042664;28;20032;-75
2021/05/06 02:11:24;;;;;;;9.38;5.35;;;;;;;18.30;100.00;100292.97;5057142;28;20116;-75
2021/05/06 02:14:10;;;;;;;8.00;5.68;;;;;;;18.25;100.00;100305.63;5057043;28;20039;-75
2021/05/06 02:16:56;;;;;;;11.68;5.80;;;;;;;18.22;100.00;100305.78;5057037;28;20103;-75
2021/05/06 02:19:45;;;;;;;8.98;5.90;;;;;;;18.11;100.00;100309.03;5043528;28;20083;-75
2021/05/06 02:22:31;;;;;;;10.35;6.55;;;;;;;18.09;100.00;100320.66;5056506;28;20067;-75
2021/05/06 02:25:18;;;;;;;9.82;6.68;;;;;;;18.13;100.00;100320.38;5057018;28;20032;-75
2021/05/06 02:28:04;;;;;;;7.13;6.38;;;;;;;18.03;100.00;100320.97;5056060;28;20449;-75
2021/05/06 02:30:50;;;;;;;10.23;6.63;;;;;;;17.68;100.00;100332.63;5057298;28;20044;-75
2021/05/06 02:33:36;;;;;;;10.13;6.50;;;;;;;17.75;100.00;100344.59;5056036;28;20055;-75
2021/05/06 02:36:22;;;;;;;10.98;6.35;;;;;;;17.86;100.00;100342.22;5055950;28;20035;-74
2021/05/06 02:39:07;;;;;;;8.02;6.05;;;;;;;17.73;100.00;100351.78;5056797;28;20049;-74
2021/05/06 02:41:53;;;;;;;12.23;7.82;;;;;;;17.81;100.00;100365.47;5056772;28;20056;-74
2021/05/06 02:44:40;;;;;;;11.20;6.57;;;;;;;17.59;100.00;100368.38;5057380;28;20346;-74
2021/05/06 02:47:27;;;;;;;9.32;7.10;;;;;;;17.48;100.00;100368.06;5056703;28;20057;-74
2021/05/06 02:50:14;;;;;;;11.00;6.70;;;;;;;17.35;100.00;100374.03;5057199;28;20039;-74
2021/05/06 02:53:08;;;;;;;10.00;6.25;;;;;;;17.40;100.00;100377.31;5055788;28;20461;-74
2021/05/06 03:04:44;;;;;;;8.60;6.03;;;;;;;16.93;100.00;100400.84;5055711;28;20386;-75
2021/05/06 03:07:32;;;;;;;8.98;6.10;;;;;;;16.90;100.00;100416.00;5056760;28;20021;-75
2021/05/06 03:10:34;;;;;;;7.97;6.18;;;;;;;16.86;100.00;100427.66;5045854;28;20133;-75
2021/05/06 03:25:29;;;;;;;9.45;6.30;;;;;;;17.01;100.00;100454.28;5057222;28;20029;-74
2021/05/06 03:28:23;;;;;;;10.23;5.60;;;;;;;16.94;100.00;100465.22;5057139;28;20365;-73
2021/05/06 03:31:20;;;;;;;8.57;6.43;;;;;;;16.87;100.00;100477.00;5058325;28;20029;-74
2021/05/06 03:43:32;;;;;;;12.20;6.20;;;;;;;16.54;100.00;100497.06;5055307;28;20021;-74
2021/05/06 04:17:15;;;;;;;10.50;6.28;;;;;;;16.09;100.00;100547.53;5055252;28;20509;-75
2021/05/06 04:26:18;;;;;;;10.77;5.95;;;;;;;16.57;100.00;100555.13;5054220;28;20032;-75
2021/05/06 04:35:43;;;;;;;17.65;7.45;;;;;;;16.39;100.00;100569.16;4991985;28;20034;-75
2021/05/06 04:38:29;;;;;;;9.38;7.38;;;;;;;16.70;100.00;100582.75;5057787;28;20032;-75
2021/05/06 04:44:57;;;;;;;13.25;7.13;;;;;;;16.77;100.00;100576.28;5059214;28;20346;-75
2021/05/06 05:05:17;;;;;;;12.52;6.90;;;;;;;17.01;100.00;100613.09;5058025;28;20386;-74
2021/05/06 05:08:08;;;;;;;10.70;7.32;;;;;;;16.95;100.00;100623.06;5059043;28;20020;-73
2021/05/06 05:13:57;;;;;;;10.55;7.13;;;;;;;17.29;100.00;100633.84;5058082;28;20029;-74
2021/05/06 05:25:46;;;;;;;12.65;7.60;;;;;;;17.64;100.00;100649.84;5058376;28;20036;-75
2021/05/06 05:28:32;;;;;;;9.98;6.60;;;;;;;17.65;100.00;100653.38;5058336;28;20107;-74
2021/05/06 05:31:18;;;;;;;8.95;7.10;;;;;;;17.78;100.00;100658.00;5058439;28;20128;-75
2021/05/06 05:34:16;;;;;;;10.27;7.50;;;;;;;17.83;100.00;100658.66;5058715;28;20437;-75
2021/05/06 05:37:02;;;;;;;11.73;7.20;;;;;;;17.93;100.00;100673.16;5044154;28;20102;-74
2021/05/06 05:42:41;;;;;;;28.52;20.10;;;;;;;17.96;100.00;100685.41;5057086;28;20119;-74
2021/05/06 05:54:38;;;;;;;8.70;7.00;;;;;;;18.68;100.00;100687.97;5057405;28;20083;-75
2021/05/06 05:57:23;;;;;;;9.50;6.07;;;;;;;18.83;100.00;100691.63;5058029;28;20054;-74
2021/05/06 06:00:10;;;;;;;10.10;6.90;;;;;;;18.59;100.00;100684.94;5057089;28;20029;-74
2021/05/06 06:02:55;;;;;;;10.27;7.10;;;;;;;18.65;100.00;100692.59;5057612;28;20063;-74
2021/05/06 06:05:41;;;;;;;12.60;7.20;;;;;;;18.66;100.00;100681.03;5042917;28;20021;-73
2021/05/06 06:08:30;;;;;;;8.63;6.93;;;;;;;18.90;100.00;100690.41;5057418;28;20335;-74
2021/05/06 06:11:16;;;;;;;12.45;7.30;;;;;;;19.04;100.00;100698.47;5056622;28;20045;-76
2021/05/06 06:14:08;;;;;;;12.52;7.38;;;;;;;18.73;100.00;100703.69;5056982;28;20087;-73
2021/05/06 06:16:54;;;;;;;17.20;6.93;;;;;;;19.06;100.00;100699.28;5055997;28;20457;-74
2021/05/06 06:19:46;;;;;;;15.90;7.60;;;;;;;18.84;100.00;100720.78;5042886;28;20063;-74
2021/05/06 06:22:32;;;;;;;17.10;6.82;;;;;;;18.88;100.00;100716.16;5056520;28;20024;-74
2021/05/06 06:25:18;;;;;;;11.57;7.30;;;;;;;18.98;100.00;100714.75;5057194;28;20087;-74
2021/05/06 06:28:08;;;;;;;9.20;6.22;;;;;;;19.17;100.00;100718.19;5057079;28;20029;-74
2021/05/06 06:30:55;;;;;;;11.27;5.82;;;;;;;19.32;100.00;100728.00;5058518;28;20357;-73
2021/05/06 06:33:41;;;;;;;8.35;6.20;;;;;;;19.36;100.00;100713.63;5056520;28;20112;-74
2021/05/06 06:36:27;;;;;;;7.80;5.35;;;;;;;19.62;100.00;100713.09;5056731;28;20020;-74
2021/05/06 06:39:15;;;;;;;10.35;5.28;;;;;;;19.50;100.00;100728.81;5057284;28;20340;-74
2021/05/06 06:42:01;;;;;;;7.50;5.35;;;;;;;19.46;100.00;100722.84;5042235;28;20021;-74
2021/05/06 06:44:47;;;;;;;7.53;5.22;;;;;;;19.64;100.00;100710.34;5056517;28;20043;-73
2021/05/06 06:47:32;;;;;;;6.45;4.93;;;;;;;19.87;100.00;100726.75;5055771;28;20036;-75
2021/05/06 06:50:18;;;;;;;8.30;5.60;;;;;;;20.23;100.00;100731.84;5055832;28;20036;-74
2021/05/06 06:53:04;;;;;;;12.07;4.80;;;;;;;20.07;100.00;100737.13;5056051;28;20032;-75
2021/05/06 06:55:50;;;;;;;9.90;5.28;;;;;;;20.30;100.00;100746.50;5056416;28;20044;-76
2021/05/06 06:58:39;;;;;;;6.60;4.95;;;;;;;20.36;100.00;100752.34;5041271;28;20453;-74
2021/05/06 07:01:24;;;;;;;10.32;5.13;;;;;;;20.50;100.00;100757.75;5056828;28;20442;-75
2021/05/06 07:04:11;;;;;;;7.15;4.20;;;;;;;20.28;100.00;100765.22;5040965;28;20036;-75
2021/05/06 07:06:56;;;;;;;7.15;4.32;;;;;;;20.38;100.00;100769.09;5056629;28;20039;-74
2021/05/06 07:09:42;;;;;;;6.05;4.75;;;;;;;20.51;100.00;100759.47;5055766;28;20367;-75
2021/05/06 07:12:28;;;;;;;8.50;4.95;;;;;;;20.49;100.00;100758.69;5056100;28;20045;-75
2021/05/06 07:15:14;;;;;;;8.70;5.10;;;;;;;21.03;100.00;100758.16;5056263;28;20055;-75
2021/05/06 07:17:59;;;;;;;9.43;4.68;;;;;;;21.05;100.00;100756.25;5056250;28;20024;-75
2021/05/06 07:20:46;;;;;;;6.70;4.88;;;;;;;20.77;100.00;100774.78;5056624;28;20032;-74
2021/05/06 07:23:32;;;;;;;12.40;5.35;;;;;;;21.00;100.00;100765.47;5055940;28;20136;-75
2021/05/06 07:26:18;;;;;;;10.10;5.85;;;;;;;21.41;100.00;100756.69;5056575;28;20091;-75
2021/05/06 07:29:04;;;;;;;6.55;5.20;;;;;;;21.61;100.00;100763.44;5055885;28;20044;-76
2021/05/06 07:31:51;;;;;;;8.85;5.95;;;;;;;21.61;100.00;100766.13;5058719;28;20025;-75
2021/05/06 07:34:36;;;;;;;7.78;5.60;;;;;;;21.86;100.00;100761.03;5041477;28;20032;-76
2021/05/06 07:37:22;;;;;;;14.63;5.88;;;;;;;21.95;100.00;100763.09;5056936;28;20024;-76
2021/05/06 07:40:09;;;;;;;9.35;5.25;;;;;;;21.71;100.00;100765.50;5055708;28;20036;-76
2021/05/06 07:42:54;;;;;;;11.32;4.88;;;;;;;22.17;100.00;100761.63;5055546;28;20027;-75
2021/05/06 07:45:40;;;;;;;7.68;5.07;;;;;;;22.22;100.00;100764.84;5056027;28;20029;-74
2021/05/06 07:48:27;;;;;;;10.48;4.38;;;;;;;22.45;100.00;100777.56;5040890;28;20029;-75
2021/05/06 07:51:13;;;;;;;5.35;3.60;;;;;;;22.63;100.00;100786.25;5055543;28;20029;-76
2021/05/06 07:54:05;;;;;;;5.65;3.22;;;;;;;23.08;100.00;100786.66;5054399;28;20025;-75
2021/05/06 07:56:51;;;;;;;5.03;3.22;;;;;;;23.68;93.87;100778.97;5054476;28;20410;-75
2021/05/06 07:59:36;;;;;;;4.22;3.20;;;;;;;23.25;97.20;100786.44;5040931;28;20043;-74
2021/05/06 08:02:23;;;;;;;4.60;3.00;;;;;;;23.26;97.12;100796.16;5041363;28;20021;-74
2021/05/06 08:05:10;;;;;;;8.35;3.15;;;;;;;23.17;97.79;100796.75;5040422;28;20021;-74
2021/05/06 08:07:56;;;;;;;6.13;3.05;;;;;;;23.38;96.57;100797.13;5041356;28;20024;-74
2021/05/06 08:10:42;;;;;;;6.63;2.90;;;;;;;23.84;94.45;100794.78;5040472;28;20067;-74
2021/05/06 08:13:28;;;;;;;6.45;3.05;;;;;;;24.01;92.29;100797.13;5054858;28;20043;-74
2021/05/06 08:16:14;;;;;;;4.78;2.70;;;;;;;24.26;91.74;100799.78;5054812;28;20036;-74
2021/05/06 08:19:00;;;;;;;5.35;3.10;;;;;;;24.29;91.10;100799.53;5054850;28;20118;-75
2021/05/06 08:21:46;;;;;;;4.82;2.80;;;;;;;24.76;87.43;100800.50;5054102;28;20446;-73
2021/05/06 08:24:32;;;;;;;3.83;2.80;;;;;;;24.23;88.45;100797.31;5055819;28;20033;-74
2021/05/06 08:27:18;;;;;;;4.70;3.05;;;;;;;24.53;86.16;100809.34;5056408;28;20090;-74
2021/05/06 08:30:05;;;;;;;4.30;2.55;;;;;;;24.73;85.36;100808.75;5056787;28;20021;-74
2021/05/06 08:32:51;;;;;;;4.32;3.08;;;;;;;24.78;83.54;100811.06;5057166;28;20037;-75
2021/05/06 08:35:37;;;;;;;9.20;2.70;;;;;;;24.44;84.57;100801.97;5055347;28;20021;-74
2021/05/06 08:38:23;;;;;;;8.15;2.72;;;;;;;24.66;84.20;100811.97;5056376;28;20029;-75
2021/05/06 08:41:09;;;;;;;6.40;2.58;;;;;;;24.37;85.69;100819.47;5056203;28;20108;-74
2021/05/06 08:44:00;;;;;;;5.93;2.90;;;;;;;24.30;85.35;100814.66;5056851;28;20087;-75
2021/05/06 08:47:12;;;;;;;6.13;3.13;;;;;;;24.40;84.12;100818.38;5054992;28;20327;-74
2021/05/06 08:49:52;;;;;;;6.40;2.30;;;;;;;24.26;81.80;100826.56;5056099;28;20481;-74
2021/05/06 08:52:40;;;;;;;4.30;2.40;;;;;;;24.42;81.17;100821.78;5054928;28;20033;-74
2021/05/06 08:55:26;;;;;;;4.93;2.40;;;;;;;25.19;77.34;100825.75;5055845;28;20037;-75
2021/05/06 08:58:12;;;;;;;3.03;2.20;;;;;;;24.71;76.11;100825.91;5055036;28;20275;-75
2021/05/06 09:00:58;;;;;;;5.38;2.60;;;;;;;24.77;75.98;100831.69;5040629;28;20025;-74
2021/05/06 09:03:44;;;;;;;5.47;2.15;;;;;;;25.16;72.65;100834.03;5040617;28;20021;-75
2021/05/06 09:06:29;;;;;;;10.77;2.65;;;;;;;25.32;70.87;100839.97;5055160;28;20421;-74
2021/05/06 09:09:17;;;;;;;5.63;2.20;;;;;;;25.01;69.07;100831.66;5053627;28;20039;-74
2021/05/06 09:12:07;;;;;;;5.13;2.08;;;;;;;25.35;68.96;100837.06;5054199;28;20037;-73
2021/05/06 09:14:52;;;;;;;4.80;2.00;;;;;;;24.96;68.50;100836.53;5053947;28;20079;-74
2021/05/06 09:17:39;;;;;;;3.90;2.17;;;;;;;24.57;68.52;100834.06;5054441;28;20021;-73
2021/05/06 09:20:26;;;;;;;2.58;1.90;;;;;;;24.51;69.57;100834.53;5055258;28;20047;-74
2021/05/06 09:23:12;;;;;;;6.25;1.92;;;;;;;24.58;68.63;100828.59;5055300;28;20017;-74
2021/05/06 09:26:06;;;;;;;5.10;2.35;;;;;;;25.06;67.71;100830.34;5057315;28;20036;-74
2021/05/06 09:28:52;;;;;;;5.18;2.20;;;;;;;25.19;66.56;100839.16;5057193;28;20461;-74
2021/05/06 09:31:42;;;;;;;6.93;2.10;;;;;;;25.41;65.74;100852.72;5058661;28;20037;-75
2021/05/06 09:34:35;;;;;;;3.20;2.28;;;;;;;25.53;65.07;100845.53;5058230;28;20039;-75
2021/05/06 09:37:27;;;;;;;4.45;2.20;;;;;;;25.30;66.71;100847.31;5043984;28;20040;-75
2021/05/06 09:40:17;;;;;;;6.88;2.53;;;;;;;24.48;68.31;100829.38;5058025;28;20335;-75
2021/05/06 09:43:02;;;;;;;4.28;2.15;;;;;;;24.90;66.79;100847.69;5056490;28;20071;-75
2021/05/06 09:45:48;;;;;;;5.55;2.22;;;;;;;25.02;65.36;100839.59;5043415;28;20509;-75
2021/05/06 09:48:34;;;;;;;7.80;2.40;;;;;;;25.00;64.23;100846.03;5058391;28;20409;-75
2021/05/06 09:51:36;;;;;;;10.43;2.22;;;;;;;25.05;63.57;100859.97;5042119;28;20025;-75
2021/05/06 09:54:27;;;;;;;6.43;2.03;;;;;;;25.25;62.23;100853.94;5057921;28;20032;-74
2021/05/06 09:57:25;;;;;;;4.53;2.42;;;;;;;25.38;62.32;100849.38;5056677;28;20029;-74
2021/05/06 10:00:16;;;;;;;5.50;2.33;;;;;;;25.13;61.79;100860.25;5057150;28;20126;-74
2021/05/06 10:03:09;;;;;;;4.65;2.30;;;;;;;25.22;61.70;100856.84;5041847;28;20052;-74
2021/05/06 10:05:55;;;;;;;5.35;2.45;;;;;;;24.69;63.36;100860.00;5045163;28;20450;-74
2021/05/06 10:08:41;;;;;;;8.68;2.40;;;;;;;24.80;61.93;100858.25;5057994;28;20021;-74
2021/05/06 10:11:27;;;;;;;12.52;2.80;;;;;;;24.73;61.93;100861.50;5031507;28;20052;-75
2021/05/06 10:14:13;;;;;;;8.65;2.67;;;;;;;24.42;61.63;100845.88;5036021;28;20033;-75
2021/05/06 10:16:59;;;;;;;3.28;2.45;;;;;;;24.56;62.85;100860.03;5021649;28;20386;-75
2021/05/06 10:19:45;;;;;;;7.38;2.63;;;;;;;24.26;61.11;100864.91;5036937;28;20021;-74
2021/05/06 10:22:31;;;;;;;5.63;2.80;;;;;;;24.37;59.84;100864.13;5020976;28;20045;-74
2021/05/06 10:25:20;;;;;;;3.47;2.42;;;;;;;24.79;59.95;100866.41;5036533;28;20029;-74
2021/05/06 10:28:06;;;;;;;6.75;2.60;;;;;;;24.62;60.17;100864.94;5036646;28;20034;-74
2021/05/06 10:30:53;;;;;;;6.88;2.97;;;;;;;24.27;58.34;100873.81;5021918;28;20525;-74
2021/05/06 10:33:43;;;;;;;6.40;2.53;;;;;;;24.30;56.17;100861.03;5036284;28;20021;-74
2021/05/06 10:36:29;;;;;;;5.22;2.58;;;;;;;24.21;57.09;100864.38;5036020;28;20036;-74
2021/05/06 10:39:15;;;;;;;5.05;2.65;;;;;;;24.58;56.81;100867.91;5036739;28;20061;-75
2021/05/06 10:42:27;;;;;;;6.90;2.60;;;;;;;24.77;56.74;100866.53;5035748;28;20033;-75
2021/05/06 10:45:13;;;;;;;6.07;2.50;;;;;;;24.96;56.06;100882.97;5036424;28;20026;-75
2021/05/06 10:47:59;;;;;;;4.63;2.20;;;;;;;24.99;54.85;100881.88;5034347;28;20021;-75
2021/05/06 10:50:45;;;;;;;7.68;2.60;;;;;;;24.74;51.97;100873.91;5036848;28;20530;-74
2021/05/06 10:53:31;;;;;;;4.82;1.90;;;;;;;24.61;52.27;100875.78;5035957;28;20052;-74
2021/05/06 10:56:17;;;;;;;9.35;2.08;;;;;;;24.70;53.02;100873.28;5035607;28;20041;-75
2021/05/06 10:59:27;;;;;;;4.60;2.08;;;;;;;25.14;51.83;100867.31;5035192;28;20039;-74
2021/05/06 11:02:45;;;;;;;3.05;2.20;;;;;;;25.12;51.86;100877.31;5021179;28;20021;-74
2021/05/06 11:05:30;;;;;;;3.58;1.77;;;;;;;25.22;53.91;100868.44;5035108;28;20069;-74
2021/05/06 11:08:22;;;;;;;4.57;2.22;;;;;;;24.99;52.02;100879.19;5034858;28;20065;-74
2021/05/06 11:11:07;;;;;;;3.95;2.20;;;;;;;25.16;50.96;100882.31;5042035;28;20073;-75
2021/05/06 11:14:09;;;;;;;7.75;2.03;;;;;;;24.79;47.68;100869.09;5042149;28;20025;-74
2021/05/06 11:17:18;;;;;;;8.07;1.90;;;;;;;25.11;47.51;100872.91;5041383;28;20325;-74
2021/05/06 11:20:10;;;;;;;6.55;2.15;;;;;;;25.31;48.71;100867.78;5056785;28;20437;-74
2021/05/06 11:23:01;;;;;;;2.88;1.90;;;;;;;25.22;48.65;100871.13;5055317;28;20025;-74
2021/05/06 11:25:49;;;;;;;11.13;1.75;;;;;;;24.98;47.74;100881.00;5041291;28;20469;-75
2021/05/06 11:28:35;;;;;;;5.95;2.20;;;;;;;25.30;45.08;100874.13;5055399;28;20033;-74
2021/05/06 11:31:47;;;;;;;7.03;2.03;;;;;;;25.23;44.02;100864.78;5054935;28;20027;-74
2021/05/06 11:34:37;;;;;;;4.43;1.92;;;;;;;25.22;44.08;100867.59;5055776;28;20390;-75
2021/05/06 11:37:28;;;;;;;6.78;1.90;;;;;;;25.86;42.82;100865.25;5056294;28;20029;-76
2021/05/06 11:40:19;;;;;;;3.88;1.80;;;;;;;26.14;42.39;100854.06;5055943;28;20036;-76
2021/05/06 11:43:05;;;;;;;2.38;1.70;;;;;;;25.91;42.66;100863.06;5056041;28;20075;-76
2021/05/06 11:46:20;;;;;;;4.40;1.90;;;;;;;26.00;41.44;100854.31;5054304;28;20358;-75
2021/05/06 11:49:11;;;;;;;3.35;1.55;;;;;;;25.69;41.57;100854.13;5055840;28;20468;-76
2021/05/06 11:51:57;;;;;;;3.75;1.75;;;;;;;26.04;40.81;100849.56;5055458;28;20091;-75
2021/05/06 11:54:45;;;;;;;4.07;1.83;;;;;;;25.98;41.09;100852.72;5041449;28;20017;-74
2021/05/06 11:57:30;;;;;;;5.10;2.10;;;;;;;26.12;40.33;100856.00;5041349;28;20021;-74
2021/05/06 12:00:17;;;;;;;10.15;2.08;;;;;;;25.75;40.98;100864.34;5055661;28;20035;-74
2021/05/06 12:03:11;;;;;;;17.30;2.20;;;;;;;25.52;39.55;100870.66;5054588;28;20120;-74
2021/05/06 12:05:59;;;;;;;4.18;1.60;;;;;;;25.80;39.28;100864.88;5054765;28;20072;-75
2021/05/06 12:08:47;;;;;;;3.28;1.67;;;;;;;25.89;40.24;100856.97;5056323;28;20048;-74
2021/05/06 12:11:41;;;;;;;3.67;2.22;;;;;;;26.13;39.21;100860.44;5015101;28;20355;-74
2021/05/06 12:14:32;;;;;;;3.20;1.77;;;;;;;26.04;39.05;100855.75;5035459;28;20033;-75
2021/05/06 12:17:19;;;;;;;5.60;2.10;;;;;;;26.35;38.89;100862.25;5034688;28;20025;-75
2021/05/06 12:20:06;;;;;;;5.05;1.70;;;;;;;26.04;40.53;100863.81;5035534;28;20099;-75
2021/05/06 12:22:52;;;;;;;4.93;1.95;;;;;;;26.22;40.08;100857.00;5034226;28;20033;-75
2021/05/06 12:25:37;;;;;;;3.90;2.10;;;;;;;25.85;39.92;100860.00;5019462;28;20036;-75
2021/05/06 12:28:23;;;;;;;3.22;1.70;;;;;;;25.58;40.04;100857.63;5032749;28;20366;-76
2021/05/06 12:31:09;;;;;;;38.10;3.90;;;;;;;24.93;40.87;100858.19;5019655;28;20347;-75
2021/05/06 12:33:55;;;;;;;3.67;1.80;;;;;;;25.19;41.02;100854.44;5034428;28;20340;-76
2021/05/06 12:36:51;;;;;;;3.20;1.80;;;;;;;25.78;40.65;100865.00;5033253;28;20030;-75
2021/05/06 12:39:40;;;;;;;3.90;1.92;;;;;;;26.07;39.82;100860.91;5035035;28;20029;-75
2021/05/06 12:42:27;;;;;;;6.60;2.13;;;;;;;25.53;39.42;100867.00;5034047;28;20021;-75
2021/05/06 12:45:12;;;;;;;5.63;1.92;;;;;;;25.86;39.75;100867.06;5034609;28;20025;-74
2021/05/06 12:47:58;;;;;;;6.07;2.30;;;;;;;25.87;39.69;100869.63;5020615;28;20029;-74
2021/05/06 12:50:45;;;;;;;10.32;4.22;;;;;;;25.67;39.36;100872.16;5034829;28;20043;-75
2021/05/06 12:53:31;;;;;;;3.35;2.30;;;;;;;25.62;39.11;100858.25;5034323;28;20436;-75
2021/05/06 12:56:25;;;;;;;9.48;3.58;;;;;;;25.66;38.46;100855.22;5034077;28;20458;-76
2021/05/06 12:59:29;;;;;;;4.22;2.53;;;;;;;25.65;38.60;100840.09;5036931;28;20040;-75
2021/05/06 13:02:17;;;;;;;2.58;2.05;;;;;;;25.71;39.28;100847.66;5037971;28;20517;-75
2021/05/06 13:05:05;;;;;;;6.35;2.10;;;;;;;25.55;39.09;100851.66;5022675;28;20457;-75
2021/05/06 13:07:51;;;;;;;4.03;2.17;;;;;;;25.36;40.05;100848.66;5038463;28;20036;-74
2021/05/06 13:10:40;;;;;;;5.40;2.42;;;;;;;25.69;40.03;100846.94;5026782;28;20435;-75
2021/05/06 13:13:41;;;;;;;5.50;2.42;;;;;;;26.03;39.71;100846.00;5058027;28;20033;-75
2021/05/06 13:16:38;;;;;;;3.22;1.80;;;;;;;25.38;38.68;100858.31;5057644;28;20124;-75
2021/05/06 13:19:34;;;;;;;6.95;2.00;;;;;;;25.41;38.72;100851.84;5058532;28;20108;-75
2021/05/06 13:22:21;;;;;;;6.30;2.38;;;;;;;25.47;39.05;100848.72;5058162;28;20055;-75
2021/05/06 13:25:08;;;;;;;4.80;2.70;;;;;;;25.65;38.70;100842.78;5043994;28;20032;-75
2021/05/06 13:27:53;;;;;;;6.50;3.90;;;;;;;25.40;39.22;100853.66;5058162;28;20091;-74
2021/05/06 13:30:39;;;;;;;3.35;2.40;;;;;;;25.71;39.29;100842.28;5058415;28;20531;-75
2021/05/06 13:33:25;;;;;;;9.00;2.53;;;;;;;25.35;40.23;100849.66;5057892;28;20386;-74
2021/05/06 13:36:12;;;;;;;3.50;2.30;;;;;;;25.39;41.44;100851.13;5058010;28;20021;-75
2021/05/06 13:39:05;;;;;;;6.95;2.50;;;;;;;25.37;41.41;100850.38;5058323;28;20040;-75
2021/05/06 13:41:51;;;;;;;4.25;2.65;;;;;;;25.69;41.04;100844.25;5058144;28;20091;-75
2021/05/06 13:44:36;;;;;;;12.35;2.50;;;;;;;25.72;40.68;100849.34;5058586;28;20036;-75
2021/05/06 13:47:24;;;;;;;10.68;2.50;;;;;;;25.42;40.65;100849.06;5057797;28;20370;-75
2021/05/06 13:50:11;;;;;;;7.38;2.30;;;;;;;25.20;40.93;100842.72;5058288;28;20052;-75
2021/05/06 13:52:58;;;;;;;6.47;2.72;;;;;;;25.14;40.19;100841.34;5056246;28;20033;-74
2021/05/06 13:55:44;;;;;;;9.00;2.55;;;;;;;25.06;39.63;100856.28;5043271;28;20079;-75
2021/05/06 13:58:29;;;;;;;5.05;2.35;;;;;;;24.85;39.27;100844.50;5056501;28;20521;-75
2021/05/06 14:01:16;;;;;;;3.95;2.10;;;;;;;24.81;40.19;100848.38;5057953;28;20032;-75
2021/05/06 14:04:03;;;;;;;4.90;2.17;;;;;;;24.92;39.99;100845.75;5056966;28;20107;-76
2021/05/06 14:06:49;;;;;;;5.47;2.10;;;;;;;24.79;40.61;100845.81;5057565;28;20021;-75
2021/05/06 14:09:34;;;;;;;5.22;2.40;;;;;;;24.76;41.02;100839.81;5056621;28;20053;-74
2021/05/06 14:12:20;;;;;;;4.03;2.35;;;;;;;24.81;40.19;100837.66;5057545;28;20041;-75
2021/05/06 14:15:06;;;;;;;3.88;2.10;;;;;;;24.66;39.91;100831.59;5056346;28;20358;-74
2021/05/06 14:17:52;;;;;;;4.30;2.08;;;;;;;24.82;40.20;100842.03;5056764;28;20068;-74
2021/05/06 14:20:38;;;;;;;2.33;2.08;;;;;;;24.39;39.38;100846.13;5056785;28;20025;-75
2021/05/06 14:23:24;;;;;;;2.75;2.20;;;;;;;24.56;37.94;100849.31;5057692;28;20025;-74
2021/05/06 14:26:11;;;;;;;5.55;2.05;;;;;;;24.45;39.00;100859.94;5057969;28;20029;-74
2021/05/06 14:28:57;;;;;;;5.90;2.17;;;;;;;24.63;39.40;100849.75;5056734;28;20369;-74
2021/05/06 14:31:43;;;;;;;4.43;2.00;;;;;;;24.33;39.75;100846.56;5042826;28;20464;-74
2021/05/06 14:34:28;;;;;;;3.80;1.90;;;;;;;24.20;40.44;100843.94;5055739;28;20036;-74
2021/05/06 14:37:14;;;;;;;4.43;2.15;;;;;;;24.32;39.94;100853.75;5056551;28;20235;-74
2021/05/06 14:40:00;;;;;;;4.40;2.90;;;;;;;24.29;40.82;100845.06;5040959;28;20309;-74
2021/05/06 14:42:46;;;;;;;6.18;2.85;;;;;;;24.06;42.06;100845.88;5055949;28;20021;-74
2021/05/06 14:45:33;;;;;;;7.03;2.60;;;;;;;24.17;41.87;100845.94;5056958;28;20087;-75
2021/05/06 14:48:19;;;;;;;2.75;2.20;;;;;;;24.26;41.90;100842.63;5056240;28;20083;-75
2021/05/06 14:51:05;;;;;;;5.53;2.45;;;;;;;24.23;42.27;100848.19;5056497;28;20103;-74
2021/05/06 14:53:51;;;;;;;8.45;2.70;;;;;;;24.59;41.78;100853.59;5041880;28;20365;-75
2021/05/06 14:56:37;;;;;;;3.35;2.25;;;;;;;24.52;42.58;100845.13;5054829;28;20067;-75
2021/05/06 14:59:22;;;;;;;5.18;2.13;;;;;;;24.33;41.95;100860.81;5042000;28;20021;-74
2021/05/06 15:02:08;;;;;;;3.47;2.08;;;;;;;24.08;41.97;100854.63;5042820;28;20029;-75
2021/05/06 15:04:54;;;;;;;2.85;2.38;;;;;;;24.27;42.20;100861.25;5056289;28;20064;-75
2021/05/06 15:07:40;;;;;;;2.97;1.95;;;;;;;23.70;41.24;100859.13;5057384;28;20037;-74
2021/05/06 15:10:26;;;;;;;4.22;1.75;;;;;;;23.85;41.06;100850.00;5056759;28;20056;-74
2021/05/06 15:13:12;;;;;;;4.50;1.88;;;;;;;23.68;41.05;100853.88;5041614;28;20029;-74
2021/05/06 15:15:57;;;;;;;6.88;2.10;;;;;;;23.84;41.55;100853.66;5041866;28;20483;-74
2021/05/06 15:18:43;;;;;;;5.22;1.90;;;;;;;23.75;41.74;100852.47;5056322;28;20035;-74
2021/05/06 15:21:29;;;;;;;4.57;2.05;;;;;;;23.36;42.23;100848.03;5042012;28;20446;-76
2021/05/06 15:24:15;;;;;;;9.13;1.95;;;;;;;23.38;42.46;100841.75;5057034;28;20028;-74
2021/05/06 15:27:01;;;;;;;5.70;1.70;;;;;;;23.64;42.77;100848.84;5056166;28;20029;-76
2021/05/06 15:29:47;;;;;;;3.13;1.88;;;;;;;23.43;42.43;100846.66;5055921;28;20044;-76
2021/05/06 15:32:32;;;;;;;4.30;1.95;;;;;;;23.44;42.27;100858.22;5055797;28;20039;-75
2021/05/06 15:35:18;;;;;;;8.00;2.50;;;;;;;23.48;42.67;100851.72;5055097;28;20465;-74
2021/05/06 15:38:04;;;;;;;2.72;1.70;;;;;;;23.23;42.87;100860.53;5041231;28;20052;-75
2021/05/06 15:40:51;;;;;;;3.13;1.70;;;;;;;23.43;43.42;100864.56;5055522;28;20028;-76
2021/05/06 15:43:37;;;;;;;4.32;1.70;;;;;;;23.12;44.00;100867.53;5041218;28;20029;-75
2021/05/06 15:46:23;;;;;;;2.20;1.60;;;;;;;22.97;43.83;100873.88;5040314;28;20033;-75
2021/05/06 15:49:09;;;;;;;5.28;1.60;;;;;;;22.94;44.21;100871.41;5055255;28;20449;-75
2021/05/06 15:51:55;;;;;;;5.18;1.80;;;;;;;22.76;44.25;100868.16;5055351;28;20025;-75
2021/05/06 15:54:41;;;;;;;7.70;1.88;;;;;;;22.63;44.93;100861.03;5054653;28;20021;-75
2021/05/06 15:57:27;;;;;;;2.95;1.77;;;;;;;22.90;45.47;100865.41;5040804;28;20029;-75
2021/05/06 16:00:15;;;;;;;4.15;1.90;;;;;;;22.85;45.42;100864.00;5040455;28;20100;-74
2021/05/06 16:03:07;;;;;;;6.25;2.10;;;;;;;22.63;46.02;100856.53;5040417;28;20024;-74
2021/05/06 16:05:54;;;;;;;3.33;2.00;;;;;;;22.64;46.32;100858.25;5040817;28;20170;-74
2021/05/06 16:08:40;;;;;;;4.63;1.90;;;;;;;22.61;46.09;100854.91;5054260;28;20339;-75